Nanticoke — VCQL — position and weather

sailwx.info

Track history (hours):
 
Tides and Currents Weather Stations Pressure Air Temp Water Temp Dewpoint Dewpoint Depression Visibility Wind Speed Wind Dir Waves Ship Positions

Nanticoke

Last reported at 2017-Jun-21 23:29 UTC. Time now 2017-Jun-26 00:21 UTC.
Position N 49°10' W 058°23'.

Length 223 m; draft 7.2 m.

Type: Cargo ship. MMSI: 316043000.

Date/timePositionNaut miles runAvg speedWind from/ knotsBaromVisibWave heightAir tempDewpointWater temp
2017-Jun-21 23:29N 49°10' W 058°23'611.5
2017-Jun-21 23:00N 49°06' W 058°16'611.9
2017-Jun-21 22:30N 49°03' W 058°08'611.1
2017-Jun-21 22:00N 48°59' W 058°03'4 8.4
2017-Jun-21 21:30N 48°58' W 057°56'0 0.1
2017-Jun-21 21:00N 48°58' W 057°56'0 0.0
2017-Jun-21 20:30N 48°58' W 057°56'0 0.0
2017-Jun-21 20:00N 48°58' W 057°56'0 0.0
2017-Jun-21 19:30N 48°58' W 057°56'0 0.0
2017-Jun-21 19:00N 48°58' W 057°56'0 0.0
2017-Jun-21 18:30N 48°58' W 057°56'0 0.0
2017-Jun-21 18:00N 48°58' W 057°56'0 0.0
2017-Jun-21 17:30N 48°58' W 057°56'0 0.0
2017-Jun-21 17:00N 48°58' W 057°56'0 0.0
2017-Jun-21 16:30N 48°58' W 057°56'0 0.0
2017-Jun-21 16:00N 48°58' W 057°56'0 0.0
2017-Jun-21 15:30N 48°58' W 057°56'0 0.0
2017-Jun-21 15:00N 48°58' W 057°56'1 1.1
2017-Jun-21 14:30N 48°58' W 057°57'8 8.0
2017-Jun-21 13:30N 49°02' W 058°08'611.1
2017-Jun-21 13:00N 49°05' W 058°15'612.2
2017-Jun-21 12:30N 49°09' W 058°21'  
2017-Jun-17 11:15N 47°21' W 052°39'313.2
2017-Jun-17 11:00N 47°24' W 052°37'713.3
2017-Jun-17 10:30N 47°31' W 052°36'5 0.3
2017-Jun-16 17:08N 47°36' W 052°37'211.0
2017-Jun-16 16:56N 47°34' W 052°36'810.8
2017-Jun-16 16:10N 47°26' W 052°37'  
Track history (hours):
 
Tides and Currents Weather Stations Pressure Air Temp Water Temp Dewpoint Dewpoint Depression Visibility Wind Speed Wind Dir Waves Ship Positions

Nanticoke

Last reported at 2017-Jun-21 23:29 UTC. Time now 2017-Jun-26 00:21 UTC.
Position N 49°10' W 058°23'.

Length 223 m; draft 7.2 m.

Type: Cargo ship. MMSI: 316043000.

Date/timePositionNaut miles runAvg speedWind from/ knotsBaromVisibWave heightAir tempDewpointWater temp
2017-Jun-21 23:29N 49°10' W 058°23'611.5
2017-Jun-21 23:00N 49°06' W 058°16'611.9
2017-Jun-21 22:30N 49°03' W 058°08'611.1
2017-Jun-21 22:00N 48°59' W 058°03'4 8.4
2017-Jun-21 21:30N 48°58' W 057°56'0 0.1
2017-Jun-21 21:00N 48°58' W 057°56'0 0.0
2017-Jun-21 20:30N 48°58' W 057°56'0 0.0
2017-Jun-21 20:00N 48°58' W 057°56'0 0.0
2017-Jun-21 19:30N 48°58' W 057°56'0 0.0
2017-Jun-21 19:00N 48°58' W 057°56'0 0.0
2017-Jun-21 18:30N 48°58' W 057°56'0 0.0
2017-Jun-21 18:00N 48°58' W 057°56'0 0.0
2017-Jun-21 17:30N 48°58' W 057°56'0 0.0
2017-Jun-21 17:00N 48°58' W 057°56'0 0.0
2017-Jun-21 16:30N 48°58' W 057°56'0 0.0
2017-Jun-21 16:00N 48°58' W 057°56'0 0.0
2017-Jun-21 15:30N 48°58' W 057°56'0 0.0
2017-Jun-21 15:00N 48°58' W 057°56'1 1.1
2017-Jun-21 14:30N 48°58' W 057°57'8 8.0
2017-Jun-21 13:30N 49°02' W 058°08'611.1
2017-Jun-21 13:00N 49°05' W 058°15'612.2
2017-Jun-21 12:30N 49°09' W 058°21'  
2017-Jun-17 11:15N 47°21' W 052°39'313.2
2017-Jun-17 11:00N 47°24' W 052°37'713.3
2017-Jun-17 10:30N 47°31' W 052°36'5 0.3
2017-Jun-16 17:08N 47°36' W 052°37'211.0
2017-Jun-16 16:56N 47°34' W 052°36'810.8
2017-Jun-16 16:10N 47°26' W 052°37'  

Dump ship's entire track history